sensor_id;sensor_type;location;lat;lon;timestamp;P1;durP1;ratioP1;P2;durP2;ratioP2
8704;SDS011;4389;41.932;25.904;2023-04-06T00:00:40;11.10;;;8.53;;
8704;SDS011;4389;41.932;25.904;2023-04-06T00:03:07;9.00;;;8.10;;
8704;SDS011;4389;41.932;25.904;2023-04-06T00:05:35;9.77;;;8.60;;
8704;SDS011;4389;41.932;25.904;2023-04-06T00:08:02;9.83;;;8.87;;
8704;SDS011;4389;41.932;25.904;2023-04-06T00:10:29;9.73;;;8.57;;
8704;SDS011;4389;41.932;25.904;2023-04-06T00:12:57;9.67;;;8.33;;
8704;SDS011;4389;41.932;25.904;2023-04-06T00:15:25;9.53;;;8.50;;
8704;SDS011;4389;41.932;25.904;2023-04-06T00:17:52;12.83;;;8.83;;
8704;SDS011;4389;41.932;25.904;2023-04-06T00:20:19;10.20;;;9.17;;
8704;SDS011;4389;41.932;25.904;2023-04-06T00:22:47;9.63;;;8.63;;
8704;SDS011;4389;41.932;25.904;2023-04-06T00:25:14;10.60;;;8.90;;
8704;SDS011;4389;41.932;25.904;2023-04-06T00:27:41;10.40;;;9.30;;
8704;SDS011;4389;41.932;25.904;2023-04-06T00:30:09;10.43;;;9.33;;
8704;SDS011;4389;41.932;25.904;2023-04-06T00:32:36;13.80;;;9.30;;
8704;SDS011;4389;41.932;25.904;2023-04-06T00:35:03;10.00;;;9.03;;
8704;SDS011;4389;41.932;25.904;2023-04-06T00:37:31;11.03;;;9.43;;
8704;SDS011;4389;41.932;25.904;2023-04-06T00:39:59;13.43;;;9.83;;
8704;SDS011;4389;41.932;25.904;2023-04-06T00:42:27;13.53;;;9.80;;
8704;SDS011;4389;41.932;25.904;2023-04-06T00:44:54;10.30;;;9.30;;
8704;SDS011;4389;41.932;25.904;2023-04-06T00:47:23;10.30;;;9.30;;
8704;SDS011;4389;41.932;25.904;2023-04-06T00:49:51;10.17;;;9.17;;
8704;SDS011;4389;41.932;25.904;2023-04-06T00:52:18;10.97;;;9.87;;
8704;SDS011;4389;41.932;25.904;2023-04-06T00:54:46;11.50;;;10.30;;
8704;SDS011;4389;41.932;25.904;2023-04-06T00:57:14;10.97;;;9.87;;
8704;SDS011;4389;41.932;25.904;2023-04-06T00:59:41;10.80;;;9.57;;
8704;SDS011;4389;41.932;25.904;2023-04-06T01:02:09;10.77;;;9.70;;
8704;SDS011;4389;41.932;25.904;2023-04-06T01:04:36;10.50;;;9.47;;
8704;SDS011;4389;41.932;25.904;2023-04-06T01:07:03;12.87;;;8.73;;
8704;SDS011;4389;41.932;25.904;2023-04-06T01:09:30;10.10;;;9.03;;
8704;SDS011;4389;41.932;25.904;2023-04-06T01:11:57;11.10;;;9.97;;
8704;SDS011;4389;41.932;25.904;2023-04-06T01:14:25;11.33;;;9.80;;
8704;SDS011;4389;41.932;25.904;2023-04-06T01:16:52;11.10;;;9.53;;
8704;SDS011;4389;41.932;25.904;2023-04-06T01:19:19;10.20;;;9.20;;
8704;SDS011;4389;41.932;25.904;2023-04-06T01:21:48;11.97;;;10.40;;
8704;SDS011;4389;41.932;25.904;2023-04-06T01:24:19;13.00;;;11.00;;
8704;SDS011;4389;41.932;25.904;2023-04-06T01:26:46;13.80;;;11.43;;
8704;SDS011;4389;41.932;25.904;2023-04-06T01:29:13;11.53;;;10.33;;
8704;SDS011;4389;41.932;25.904;2023-04-06T01:31:40;16.03;;;11.60;;
8704;SDS011;4389;41.932;25.904;2023-04-06T01:34:07;15.97;;;13.23;;
8704;SDS011;4389;41.932;25.904;2023-04-06T01:36:34;13.60;;;11.27;;
8704;SDS011;4389;41.932;25.904;2023-04-06T01:39:00;14.70;;;11.80;;
8704;SDS011;4389;41.932;25.904;2023-04-06T01:41:29;13.03;;;11.57;;
8704;SDS011;4389;41.932;25.904;2023-04-06T01:43:56;16.40;;;12.73;;
8704;SDS011;4389;41.932;25.904;2023-04-06T01:46:22;14.40;;;12.90;;
8704;SDS011;4389;41.932;25.904;2023-04-06T01:48:49;12.47;;;11.17;;
8704;SDS011;4389;41.932;25.904;2023-04-06T01:51:16;12.00;;;10.70;;
8704;SDS011;4389;41.932;25.904;2023-04-06T01:53:43;10.93;;;9.77;;
8704;SDS011;4389;41.932;25.904;2023-04-06T01:56:10;13.37;;;11.97;;
8704;SDS011;4389;41.932;25.904;2023-04-06T01:58:38;11.20;;;10.07;;
8704;SDS011;4389;41.932;25.904;2023-04-06T02:01:05;11.80;;;10.53;;
8704;SDS011;4389;41.932;25.904;2023-04-06T02:03:32;10.77;;;9.43;;
8704;SDS011;4389;41.932;25.904;2023-04-06T02:05:59;11.23;;;10.07;;
8704;SDS011;4389;41.932;25.904;2023-04-06T02:08:26;12.83;;;10.37;;
8704;SDS011;4389;41.932;25.904;2023-04-06T02:10:52;11.97;;;10.33;;
8704;SDS011;4389;41.932;25.904;2023-04-06T02:13:19;13.53;;;12.13;;
8704;SDS011;4389;41.932;25.904;2023-04-06T02:15:48;13.67;;;10.93;;
8704;SDS011;4389;41.932;25.904;2023-04-06T02:18:14;12.87;;;11.57;;
8704;SDS011;4389;41.932;25.904;2023-04-06T02:20:42;12.53;;;11.23;;
8704;SDS011;4389;41.932;25.904;2023-04-06T02:23:09;13.37;;;11.97;;
8704;SDS011;4389;41.932;25.904;2023-04-06T02:25:36;11.67;;;10.27;;
8704;SDS011;4389;41.932;25.904;2023-04-06T02:28:03;11.13;;;10.07;;
8704;SDS011;4389;41.932;25.904;2023-04-06T02:30:30;11.23;;;10.13;;
8704;SDS011;4389;41.932;25.904;2023-04-06T02:32:59;11.83;;;10.40;;
8704;SDS011;4389;41.932;25.904;2023-04-06T02:35:27;12.27;;;10.97;;
8704;SDS011;4389;41.932;25.904;2023-04-06T02:37:54;12.03;;;10.53;;
8704;SDS011;4389;41.932;25.904;2023-04-06T02:40:21;12.43;;;11.07;;
8704;SDS011;4389;41.932;25.904;2023-04-06T02:42:48;12.43;;;9.50;;
8704;SDS011;4389;41.932;25.904;2023-04-06T02:45:15;10.87;;;9.77;;
8704;SDS011;4389;41.932;25.904;2023-04-06T02:47:41;10.93;;;9.83;;
8704;SDS011;4389;41.932;25.904;2023-04-06T02:50:10;11.37;;;10.17;;
8704;SDS011;4389;41.932;25.904;2023-04-06T02:52:37;11.47;;;10.30;;
8704;SDS011;4389;41.932;25.904;2023-04-06T02:55:04;11.70;;;10.50;;
8704;SDS011;4389;41.932;25.904;2023-04-06T02:57:33;11.90;;;10.53;;
8704;SDS011;4389;41.932;25.904;2023-04-06T02:59:59;11.53;;;10.33;;
8704;SDS011;4389;41.932;25.904;2023-04-06T03:02:26;10.20;;;9.20;;
8704;SDS011;4389;41.932;25.904;2023-04-06T03:04:53;16.03;;;9.97;;
8704;SDS011;4389;41.932;25.904;2023-04-06T03:07:22;9.57;;;8.57;;
8704;SDS011;4389;41.932;25.904;2023-04-06T03:09:48;9.33;;;8.40;;
8704;SDS011;4389;41.932;25.904;2023-04-06T03:12:15;10.03;;;9.03;;
8704;SDS011;4389;41.932;25.904;2023-04-06T03:14:43;9.93;;;8.93;;
8704;SDS011;4389;41.932;25.904;2023-04-06T03:17:10;9.53;;;8.53;;
8704;SDS011;4389;41.932;25.904;2023-04-06T03:19:37;9.27;;;8.30;;
8704;SDS011;4389;41.932;25.904;2023-04-06T03:22:03;10.77;;;9.77;;
8704;SDS011;4389;41.932;25.904;2023-04-06T03:24:32;9.60;;;8.07;;
8704;SDS011;4389;41.932;25.904;2023-04-06T03:26:59;10.20;;;8.30;;
8704;SDS011;4389;41.932;25.904;2023-04-06T03:29:26;8.23;;;7.37;;
8704;SDS011;4389;41.932;25.904;2023-04-06T03:31:53;15.37;;;7.97;;
8704;SDS011;4389;41.932;25.904;2023-04-06T03:34:20;9.00;;;8.10;;
8704;SDS011;4389;41.932;25.904;2023-04-06T03:36:47;10.93;;;9.03;;
8704;SDS011;4389;41.932;25.904;2023-04-06T03:39:14;9.67;;;8.67;;
8704;SDS011;4389;41.932;25.904;2023-04-06T03:41:43;8.53;;;7.73;;
8704;SDS011;4389;41.932;25.904;2023-04-06T03:44:10;8.40;;;7.60;;
8704;SDS011;4389;41.932;25.904;2023-04-06T03:46:37;8.03;;;7.23;;
8704;SDS011;4389;41.932;25.904;2023-04-06T03:49:04;8.50;;;7.53;;
8704;SDS011;4389;41.932;25.904;2023-04-06T03:51:30;8.40;;;7.47;;
8704;SDS011;4389;41.932;25.904;2023-04-06T03:53:57;9.70;;;8.50;;
8704;SDS011;4389;41.932;25.904;2023-04-06T03:56:24;9.23;;;8.23;;
8704;SDS011;4389;41.932;25.904;2023-04-06T03:58:53;10.17;;;9.07;;
8704;SDS011;4389;41.932;25.904;2023-04-06T04:01:20;11.87;;;9.87;;
8704;SDS011;4389;41.932;25.904;2023-04-06T04:03:46;11.83;;;9.20;;
8704;SDS011;4389;41.932;25.904;2023-04-06T04:06:13;11.53;;;10.13;;
8704;SDS011;4389;41.932;25.904;2023-04-06T04:08:40;9.23;;;8.00;;
8704;SDS011;4389;41.932;25.904;2023-04-06T04:11:07;9.33;;;7.00;;
8704;SDS011;4389;41.932;25.904;2023-04-06T04:13:34;10.07;;;8.57;;
8704;SDS011;4389;41.932;25.904;2023-04-06T04:16:02;9.03;;;8.13;;
8704;SDS011;4389;41.932;25.904;2023-04-06T04:18:29;11.00;;;8.67;;
8704;SDS011;4389;41.932;25.904;2023-04-06T04:20:56;11.23;;;9.43;;
8704;SDS011;4389;41.932;25.904;2023-04-06T04:23:23;11.47;;;9.73;;
8704;SDS011;4389;41.932;25.904;2023-04-06T04:25:49;16.50;;;12.03;;
8704;SDS011;4389;41.932;25.904;2023-04-06T04:28:16;14.27;;;9.93;;
8704;SDS011;4389;41.932;25.904;2023-04-06T04:30:43;10.67;;;9.23;;
8704;SDS011;4389;41.932;25.904;2023-04-06T04:33:12;16.70;;;15.13;;
8704;SDS011;4389;41.932;25.904;2023-04-06T04:35:38;11.37;;;9.90;;
8704;SDS011;4389;41.932;25.904;2023-04-06T04:38:05;10.73;;;9.30;;
8704;SDS011;4389;41.932;25.904;2023-04-06T04:40:32;9.57;;;7.43;;
8704;SDS011;4389;41.932;25.904;2023-04-06T04:42:59;8.93;;;7.93;;
8704;SDS011;4389;41.932;25.904;2023-04-06T04:45:26;8.63;;;7.63;;
8704;SDS011;4389;41.932;25.904;2023-04-06T04:47:53;9.27;;;7.20;;
8704;SDS011;4389;41.932;25.904;2023-04-06T04:50:21;7.63;;;6.83;;
8704;SDS011;4389;41.932;25.904;2023-04-06T04:52:48;10.97;;;7.77;;
8704;SDS011;4389;41.932;25.904;2023-04-06T04:55:15;9.00;;;7.67;;
8704;SDS011;4389;41.932;25.904;2023-04-06T04:57:43;8.83;;;7.93;;
8704;SDS011;4389;41.932;25.904;2023-04-06T05:00:10;8.40;;;7.60;;
8704;SDS011;4389;41.932;25.904;2023-04-06T05:02:38;9.70;;;8.70;;
8704;SDS011;4389;41.932;25.904;2023-04-06T05:05:05;15.07;;;8.50;;
8704;SDS011;4389;41.932;25.904;2023-04-06T05:07:34;10.27;;;8.27;;
8704;SDS011;4389;41.932;25.904;2023-04-06T05:10:01;11.10;;;10.00;;
8704;SDS011;4389;41.932;25.904;2023-04-06T05:12:28;8.87;;;7.60;;
8704;SDS011;4389;41.932;25.904;2023-04-06T05:14:55;10.23;;;9.23;;
8704;SDS011;4389;41.932;25.904;2023-04-06T05:17:21;11.03;;;9.40;;
8704;SDS011;4389;41.932;25.904;2023-04-06T05:19:48;11.40;;;10.20;;
8704;SDS011;4389;41.932;25.904;2023-04-06T05:22:15;10.77;;;9.57;;
8704;SDS011;4389;41.932;25.904;2023-04-06T05:24:44;10.60;;;9.27;;
8704;SDS011;4389;41.932;25.904;2023-04-06T05:27:11;11.43;;;9.60;;
8704;SDS011;4389;41.932;25.904;2023-04-06T05:29:37;9.87;;;8.87;;
8704;SDS011;4389;41.932;25.904;2023-04-06T05:32:05;10.73;;;9.63;;
8704;SDS011;4389;41.932;25.904;2023-04-06T05:34:32;12.50;;;9.37;;
8704;SDS011;4389;41.932;25.904;2023-04-06T05:36:59;13.17;;;10.17;;
8704;SDS011;4389;41.932;25.904;2023-04-06T05:39:28;20.40;;;11.50;;
8704;SDS011;4389;41.932;25.904;2023-04-06T05:41:56;13.40;;;9.57;;
8704;SDS011;4389;41.932;25.904;2023-04-06T05:44:23;13.83;;;9.40;;
8704;SDS011;4389;41.932;25.904;2023-04-06T05:46:50;11.63;;;10.40;;
8704;SDS011;4389;41.932;25.904;2023-04-06T05:49:17;12.07;;;9.67;;
8704;SDS011;4389;41.932;25.904;2023-04-06T05:51:43;13.23;;;8.63;;
8704;SDS011;4389;41.932;25.904;2023-04-06T05:54:10;11.27;;;9.37;;
8704;SDS011;4389;41.932;25.904;2023-04-06T05:56:37;11.67;;;10.47;;
8704;SDS011;4389;41.932;25.904;2023-04-06T05:59:05;13.77;;;11.17;;
8704;SDS011;4389;41.932;25.904;2023-04-06T06:01:32;10.63;;;9.00;;
8704;SDS011;4389;41.932;25.904;2023-04-06T06:04:00;11.50;;;9.20;;
8704;SDS011;4389;41.932;25.904;2023-04-06T06:06:27;13.70;;;10.53;;
8704;SDS011;4389;41.932;25.904;2023-04-06T06:08:55;19.07;;;10.70;;
8704;SDS011;4389;41.932;25.904;2023-04-06T06:11:24;13.60;;;9.80;;
8704;SDS011;4389;41.932;25.904;2023-04-06T06:13:51;11.93;;;10.40;;
8704;SDS011;4389;41.932;25.904;2023-04-06T06:16:19;11.17;;;9.90;;
8704;SDS011;4389;41.932;25.904;2023-04-06T06:18:47;11.00;;;9.20;;
8704;SDS011;4389;41.932;25.904;2023-04-06T06:21:14;10.53;;;9.53;;
8704;SDS011;4389;41.932;25.904;2023-04-06T06:23:42;11.17;;;10.03;;
8704;SDS011;4389;41.932;25.904;2023-04-06T06:26:09;13.57;;;10.90;;
8704;SDS011;4389;41.932;25.904;2023-04-06T06:28:36;22.57;;;11.97;;
8704;SDS011;4389;41.932;25.904;2023-04-06T06:31:02;12.97;;;10.57;;
8704;SDS011;4389;41.932;25.904;2023-04-06T06:33:31;13.37;;;11.37;;
8704;SDS011;4389;41.932;25.904;2023-04-06T06:35:58;14.23;;;10.87;;
8704;SDS011;4389;41.932;25.904;2023-04-06T06:38:24;14.70;;;11.73;;
8704;SDS011;4389;41.932;25.904;2023-04-06T06:40:51;14.53;;;11.10;;
8704;SDS011;4389;41.932;25.904;2023-04-06T06:43:18;12.40;;;9.17;;
8704;SDS011;4389;41.932;25.904;2023-04-06T06:45:45;10.53;;;9.47;;
8704;SDS011;4389;41.932;25.904;2023-04-06T06:48:12;12.97;;;9.43;;
8704;SDS011;4389;41.932;25.904;2023-04-06T06:50:40;14.67;;;9.40;;
8704;SDS011;4389;41.932;25.904;2023-04-06T06:53:07;19.67;;;9.97;;
8704;SDS011;4389;41.932;25.904;2023-04-06T06:55:34;9.23;;;8.10;;
8704;SDS011;4389;41.932;25.904;2023-04-06T06:58:01;9.43;;;7.80;;
8704;SDS011;4389;41.932;25.904;2023-04-06T07:00:28;9.57;;;8.30;;
8704;SDS011;4389;41.932;25.904;2023-04-06T07:02:54;13.50;;;8.20;;
8704;SDS011;4389;41.932;25.904;2023-04-06T07:05:21;14.63;;;8.13;;
8704;SDS011;4389;41.932;25.904;2023-04-06T07:07:50;16.50;;;8.93;;
8704;SDS011;4389;41.932;25.904;2023-04-06T07:10:17;9.53;;;8.23;;
8704;SDS011;4389;41.932;25.904;2023-04-06T07:12:44;8.43;;;7.63;;
8704;SDS011;4389;41.932;25.904;2023-04-06T07:15:11;15.67;;;9.00;;
8704;SDS011;4389;41.932;25.904;2023-04-06T07:17:38;10.10;;;9.10;;
8704;SDS011;4389;41.932;25.904;2023-04-06T07:20:06;12.17;;;8.97;;
8704;SDS011;4389;41.932;25.904;2023-04-06T07:22:34;17.03;;;9.07;;
8704;SDS011;4389;41.932;25.904;2023-04-06T07:25:02;15.33;;;8.17;;
8704;SDS011;4389;41.932;25.904;2023-04-06T07:27:30;8.60;;;7.80;;
8704;SDS011;4389;41.932;25.904;2023-04-06T07:29:56;11.30;;;9.20;;
8704;SDS011;4389;41.932;25.904;2023-04-06T07:32:23;9.57;;;6.90;;
8704;SDS011;4389;41.932;25.904;2023-04-06T07:34:50;7.33;;;6.50;;
8704;SDS011;4389;41.932;25.904;2023-04-06T07:37:17;10.50;;;7.30;;
8704;SDS011;4389;41.932;25.904;2023-04-06T07:39:44;7.17;;;6.33;;
8704;SDS011;4389;41.932;25.904;2023-04-06T07:42:13;7.20;;;6.50;;
8704;SDS011;4389;41.932;25.904;2023-04-06T07:44:40;8.00;;;6.07;;
8704;SDS011;4389;41.932;25.904;2023-04-06T07:47:07;11.13;;;8.53;;
8704;SDS011;4389;41.932;25.904;2023-04-06T07:49:33;7.87;;;6.63;;
8704;SDS011;4389;41.932;25.904;2023-04-06T07:52:00;6.23;;;5.60;;
8704;SDS011;4389;41.932;25.904;2023-04-06T07:54:28;6.80;;;5.53;;
8704;SDS011;4389;41.932;25.904;2023-04-06T07:56:55;10.43;;;6.00;;
8704;SDS011;4389;41.932;25.904;2023-04-06T07:59:23;9.30;;;6.17;;
8704;SDS011;4389;41.932;25.904;2023-04-06T08:01:50;6.83;;;6.03;;
8704;SDS011;4389;41.932;25.904;2023-04-06T08:04:17;5.80;;;5.00;;
8704;SDS011;4389;41.932;25.904;2023-04-06T08:06:43;6.90;;;5.27;;
8704;SDS011;4389;41.932;25.904;2023-04-06T08:09:10;5.63;;;5.13;;
8704;SDS011;4389;41.932;25.904;2023-04-06T08:11:37;8.23;;;5.57;;
8704;SDS011;4389;41.932;25.904;2023-04-06T08:14:04;6.80;;;5.63;;
8704;SDS011;4389;41.932;25.904;2023-04-06T08:16:32;8.30;;;6.27;;
8704;SDS011;4389;41.932;25.904;2023-04-06T08:18:59;7.23;;;6.53;;
8704;SDS011;4389;41.932;25.904;2023-04-06T08:21:26;6.83;;;6.13;;
8704;SDS011;4389;41.932;25.904;2023-04-06T08:23:53;6.03;;;4.47;;
8704;SDS011;4389;41.932;25.904;2023-04-06T08:26:19;7.43;;;5.83;;
8704;SDS011;4389;41.932;25.904;2023-04-06T08:28:46;5.30;;;4.87;;
8704;SDS011;4389;41.932;25.904;2023-04-06T08:31:13;7.23;;;5.20;;
8704;SDS011;4389;41.932;25.904;2023-04-06T08:33:42;7.43;;;5.33;;
8704;SDS011;4389;41.932;25.904;2023-04-06T08:36:09;6.10;;;5.50;;
8704;SDS011;4389;41.932;25.904;2023-04-06T08:38:37;8.60;;;5.77;;
8704;SDS011;4389;41.932;25.904;2023-04-06T08:41:07;8.53;;;5.17;;
8704;SDS011;4389;41.932;25.904;2023-04-06T08:43:37;7.40;;;5.13;;
8704;SDS011;4389;41.932;25.904;2023-04-06T08:46:09;12.70;;;5.57;;
8704;SDS011;4389;41.932;25.904;2023-04-06T08:48:38;5.67;;;5.10;;
8704;SDS011;4389;41.932;25.904;2023-04-06T08:51:07;5.93;;;5.33;;
8704;SDS011;4389;41.932;25.904;2023-04-06T08:53:35;5.27;;;4.77;;
8704;SDS011;4389;41.932;25.904;2023-04-06T08:56:02;6.23;;;4.47;;
8704;SDS011;4389;41.932;25.904;2023-04-06T08:58:32;5.67;;;5.17;;
8704;SDS011;4389;41.932;25.904;2023-04-06T09:01:01;8.57;;;5.97;;
8704;SDS011;4389;41.932;25.904;2023-04-06T09:03:32;7.73;;;5.63;;
8704;SDS011;4389;41.932;25.904;2023-04-06T09:06:03;7.10;;;5.90;;
8704;SDS011;4389;41.932;25.904;2023-04-06T09:08:32;6.77;;;6.07;;
8704;SDS011;4389;41.932;25.904;2023-04-06T09:11:00;7.17;;;6.00;;
8704;SDS011;4389;41.932;25.904;2023-04-06T09:13:27;5.80;;;4.77;;
8704;SDS011;4389;41.932;25.904;2023-04-06T09:15:58;5.50;;;5.00;;
8704;SDS011;4389;41.932;25.904;2023-04-06T09:18:29;6.07;;;5.47;;
8704;SDS011;4389;41.932;25.904;2023-04-06T09:20:57;6.10;;;5.50;;
8704;SDS011;4389;41.932;25.904;2023-04-06T09:23:25;6.40;;;5.53;;
8704;SDS011;4389;41.932;25.904;2023-04-06T09:26:04;6.23;;;5.63;;
8704;SDS011;4389;41.932;25.904;2023-04-06T09:28:40;6.23;;;5.67;;
8704;SDS011;4389;41.932;25.904;2023-04-06T09:31:08;8.53;;;6.33;;
8704;SDS011;4389;41.932;25.904;2023-04-06T09:33:36;6.33;;;5.73;;
8704;SDS011;4389;41.932;25.904;2023-04-06T09:36:04;5.80;;;5.20;;
8704;SDS011;4389;41.932;25.904;2023-04-06T09:38:32;6.30;;;5.70;;
8704;SDS011;4389;41.932;25.904;2023-04-06T09:40:59;6.03;;;5.43;;
8704;SDS011;4389;41.932;25.904;2023-04-06T09:43:27;7.77;;;6.07;;
8704;SDS011;4389;41.932;25.904;2023-04-06T09:45:54;8.07;;;5.30;;
8704;SDS011;4389;41.932;25.904;2023-04-06T09:48:22;7.17;;;5.40;;
8704;SDS011;4389;41.932;25.904;2023-04-06T09:50:52;5.53;;;5.03;;
8704;SDS011;4389;41.932;25.904;2023-04-06T09:53:25;4.43;;;4.03;;
8704;SDS011;4389;41.932;25.904;2023-04-06T09:55:55;5.80;;;5.20;;
8704;SDS011;4389;41.932;25.904;2023-04-06T09:58:29;5.47;;;4.97;;
8704;SDS011;4389;41.932;25.904;2023-04-06T10:01:01;5.77;;;5.17;;
8704;SDS011;4389;41.932;25.904;2023-04-06T10:03:34;13.13;;;11.90;;
8704;SDS011;4389;41.932;25.904;2023-04-06T10:06:11;10.73;;;5.30;;
8704;SDS011;4389;41.932;25.904;2023-04-06T10:08:41;5.33;;;4.83;;
8704;SDS011;4389;41.932;25.904;2023-04-06T10:11:11;6.40;;;4.83;;
8704;SDS011;4389;41.932;25.904;2023-04-06T10:13:40;5.67;;;4.70;;
8704;SDS011;4389;41.932;25.904;2023-04-06T10:16:07;5.03;;;4.50;;
8704;SDS011;4389;41.932;25.904;2023-04-06T10:18:34;7.63;;;6.10;;
8704;SDS011;4389;41.932;25.904;2023-04-06T10:21:04;20.73;;;5.63;;
8704;SDS011;4389;41.932;25.904;2023-04-06T10:23:35;14.50;;;4.87;;
8704;SDS011;4389;41.932;25.904;2023-04-06T10:26:12;6.80;;;5.20;;
8704;SDS011;4389;41.932;25.904;2023-04-06T10:28:43;6.30;;;4.37;;
8704;SDS011;4389;41.932;25.904;2023-04-06T10:31:11;8.00;;;5.30;;
8704;SDS011;4389;41.932;25.904;2023-04-06T10:33:38;6.60;;;5.23;;
8704;SDS011;4389;41.932;25.904;2023-04-06T10:36:10;5.23;;;4.73;;
8704;SDS011;4389;41.932;25.904;2023-04-06T10:38:37;5.20;;;4.70;;
8704;SDS011;4389;41.932;25.904;2023-04-06T10:41:05;5.73;;;5.13;;
8704;SDS011;4389;41.932;25.904;2023-04-06T10:43:34;6.53;;;5.20;;
8704;SDS011;4389;41.932;25.904;2023-04-06T10:46:04;5.70;;;4.83;;
8704;SDS011;4389;41.932;25.904;2023-04-06T10:48:38;5.10;;;4.60;;
8704;SDS011;4389;41.932;25.904;2023-04-06T10:51:09;6.73;;;4.00;;
8704;SDS011;4389;41.932;25.904;2023-04-06T10:53:37;4.47;;;4.07;;
8704;SDS011;4389;41.932;25.904;2023-04-06T10:56:04;4.67;;;4.27;;
8704;SDS011;4389;41.932;25.904;2023-04-06T10:58:37;4.90;;;4.40;;
8704;SDS011;4389;41.932;25.904;2023-04-06T11:01:08;6.57;;;4.80;;
8704;SDS011;4389;41.932;25.904;2023-04-06T11:03:42;6.50;;;4.83;;
8704;SDS011;4389;41.932;25.904;2023-04-06T11:06:09;8.43;;;5.10;;
8704;SDS011;4389;41.932;25.904;2023-04-06T11:08:36;5.00;;;4.50;;
8704;SDS011;4389;41.932;25.904;2023-04-06T11:11:05;4.80;;;4.33;;
8704;SDS011;4389;41.932;25.904;2023-04-06T11:13:40;4.70;;;4.30;;
8704;SDS011;4389;41.932;25.904;2023-04-06T11:16:13;4.97;;;4.23;;
8704;SDS011;4389;41.932;25.904;2023-04-06T11:18:47;3.97;;;3.67;;
8704;SDS011;4389;41.932;25.904;2023-04-06T11:21:18;3.67;;;3.37;;
8704;SDS011;4389;41.932;25.904;2023-04-06T11:23:46;5.00;;;3.03;;
8704;SDS011;4389;41.932;25.904;2023-04-06T11:26:13;3.33;;;3.03;;
8704;SDS011;4389;41.932;25.904;2023-04-06T11:28:41;3.90;;;3.00;;
8704;SDS011;4389;41.932;25.904;2023-04-06T11:31:08;3.87;;;3.47;;
8704;SDS011;4389;41.932;25.904;2023-04-06T11:33:37;4.40;;;3.80;;
8704;SDS011;4389;41.932;25.904;2023-04-06T11:36:05;4.57;;;4.17;;
8704;SDS011;4389;41.932;25.904;2023-04-06T11:38:33;4.63;;;4.20;;
8704;SDS011;4389;41.932;25.904;2023-04-06T11:41:00;4.07;;;3.70;;
8704;SDS011;4389;41.932;25.904;2023-04-06T11:43:28;5.87;;;4.63;;
8704;SDS011;4389;41.932;25.904;2023-04-06T11:46:01;4.87;;;3.40;;
8704;SDS011;4389;41.932;25.904;2023-04-06T11:48:29;4.20;;;3.80;;
8704;SDS011;4389;41.932;25.904;2023-04-06T11:50:58;4.27;;;3.87;;
8704;SDS011;4389;41.932;25.904;2023-04-06T11:53:26;4.70;;;4.23;;
8704;SDS011;4389;41.932;25.904;2023-04-06T11:55:54;4.83;;;3.67;;
8704;SDS011;4389;41.932;25.904;2023-04-06T11:58:20;4.53;;;4.13;;
8704;SDS011;4389;41.932;25.904;2023-04-06T12:00:48;4.20;;;3.80;;
8704;SDS011;4389;41.932;25.904;2023-04-06T12:03:14;4.73;;;3.97;;
8704;SDS011;4389;41.932;25.904;2023-04-06T12:05:43;4.57;;;4.17;;
8704;SDS011;4389;41.932;25.904;2023-04-06T12:08:11;4.00;;;3.60;;
8704;SDS011;4389;41.932;25.904;2023-04-06T12:10:38;5.43;;;3.70;;
8704;SDS011;4389;41.932;25.904;2023-04-06T12:13:05;4.03;;;3.70;;
8704;SDS011;4389;41.932;25.904;2023-04-06T12:15:32;4.67;;;3.87;;
8704;SDS011;4389;41.932;25.904;2023-04-06T12:17:59;4.47;;;2.70;;
8704;SDS011;4389;41.932;25.904;2023-04-06T12:20:26;4.30;;;3.13;;
8704;SDS011;4389;41.932;25.904;2023-04-06T12:22:52;6.23;;;4.00;;
8704;SDS011;4389;41.932;25.904;2023-04-06T12:25:21;3.77;;;3.37;;
8704;SDS011;4389;41.932;25.904;2023-04-06T12:27:48;5.80;;;4.40;;
8704;SDS011;4389;41.932;25.904;2023-04-06T12:30:15;4.67;;;4.23;;
8704;SDS011;4389;41.932;25.904;2023-04-06T12:32:42;3.90;;;3.60;;
8704;SDS011;4389;41.932;25.904;2023-04-06T12:35:09;4.40;;;4.00;;
8704;SDS011;4389;41.932;25.904;2023-04-06T12:37:37;4.97;;;4.23;;
8704;SDS011;4389;41.932;25.904;2023-04-06T12:40:04;6.87;;;4.13;;
8704;SDS011;4389;41.932;25.904;2023-04-06T12:42:33;13.67;;;4.97;;
8704;SDS011;4389;41.932;25.904;2023-04-06T12:45:00;5.77;;;4.53;;
8704;SDS011;4389;41.932;25.904;2023-04-06T12:47:27;4.47;;;4.07;;
8704;SDS011;4389;41.932;25.904;2023-04-06T12:49:54;7.37;;;4.60;;
8704;SDS011;4389;41.932;25.904;2023-04-06T12:52:21;13.63;;;5.50;;
8704;SDS011;4389;41.932;25.904;2023-04-06T12:54:48;3.70;;;3.40;;
8704;SDS011;4389;41.932;25.904;2023-04-06T12:57:16;9.30;;;4.20;;
8704;SDS011;4389;41.932;25.904;2023-04-06T12:59:45;4.20;;;3.80;;
8704;SDS011;4389;41.932;25.904;2023-04-06T13:02:12;5.90;;;3.93;;
8704;SDS011;4389;41.932;25.904;2023-04-06T13:04:38;5.70;;;3.97;;
8704;SDS011;4389;41.932;25.904;2023-04-06T13:07:05;4.90;;;4.40;;
8704;SDS011;4389;41.932;25.904;2023-04-06T13:09:32;5.73;;;3.80;;
8704;SDS011;4389;41.932;25.904;2023-04-06T13:11:59;4.20;;;3.80;;
8704;SDS011;4389;41.932;25.904;2023-04-06T13:14:26;3.63;;;3.33;;
8704;SDS011;4389;41.932;25.904;2023-04-06T13:16:54;3.43;;;3.13;;
8704;SDS011;4389;41.932;25.904;2023-04-06T13:19:21;5.03;;;4.50;;
8704;SDS011;4389;41.932;25.904;2023-04-06T13:21:48;7.30;;;4.87;;
8704;SDS011;4389;41.932;25.904;2023-04-06T13:24:15;5.43;;;4.70;;
8704;SDS011;4389;41.932;25.904;2023-04-06T13:26:42;5.20;;;4.70;;
8704;SDS011;4389;41.932;25.904;2023-04-06T13:29:09;6.00;;;4.60;;
8704;SDS011;4389;41.932;25.904;2023-04-06T13:31:35;5.13;;;4.70;;
8704;SDS011;4389;41.932;25.904;2023-04-06T13:34:04;5.03;;;4.37;;
8704;SDS011;4389;41.932;25.904;2023-04-06T13:36:31;8.03;;;4.47;;
8704;SDS011;4389;41.932;25.904;2023-04-06T13:38:58;4.20;;;3.80;;
8704;SDS011;4389;41.932;25.904;2023-04-06T13:41:25;9.00;;;4.10;;
8704;SDS011;4389;41.932;25.904;2023-04-06T13:43:52;4.70;;;4.10;;
8704;SDS011;4389;41.932;25.904;2023-04-06T13:46:19;8.23;;;4.90;;
8704;SDS011;4389;41.932;25.904;2023-04-06T13:48:47;5.43;;;4.07;;
8704;SDS011;4389;41.932;25.904;2023-04-06T13:51:16;4.57;;;3.90;;
8704;SDS011;4389;41.932;25.904;2023-04-06T13:53:43;5.13;;;3.90;;
8704;SDS011;4389;41.932;25.904;2023-04-06T13:56:10;7.47;;;5.13;;
8704;SDS011;4389;41.932;25.904;2023-04-06T13:58:37;8.17;;;4.47;;
8704;SDS011;4389;41.932;25.904;2023-04-06T14:01:04;5.43;;;3.90;;
8704;SDS011;4389;41.932;25.904;2023-04-06T14:03:32;4.00;;;3.70;;
8704;SDS011;4389;41.932;25.904;2023-04-06T14:05:59;5.17;;;3.73;;
8704;SDS011;4389;41.932;25.904;2023-04-06T14:08:28;3.93;;;3.63;;
8704;SDS011;4389;41.932;25.904;2023-04-06T14:10:55;6.50;;;3.70;;
8704;SDS011;4389;41.932;25.904;2023-04-06T14:13:22;4.17;;;3.50;;
8704;SDS011;4389;41.932;25.904;2023-04-06T14:15:52;5.00;;;4.37;;
8704;SDS011;4389;41.932;25.904;2023-04-06T14:18:20;4.53;;;4.07;;
8704;SDS011;4389;41.932;25.904;2023-04-06T14:20:53;4.77;;;3.80;;
8704;SDS011;4389;41.932;25.904;2023-04-06T14:23:20;4.30;;;3.83;;
8704;SDS011;4389;41.932;25.904;2023-04-06T14:25:49;16.33;;;10.63;;
8704;SDS011;4389;41.932;25.904;2023-04-06T14:28:16;4.33;;;3.83;;
8704;SDS011;4389;41.932;25.904;2023-04-06T14:30:43;7.87;;;4.40;;
8704;SDS011;4389;41.932;25.904;2023-04-06T14:33:10;6.83;;;4.90;;
8704;SDS011;4389;41.932;25.904;2023-04-06T14:35:37;8.13;;;4.40;;
8704;SDS011;4389;41.932;25.904;2023-04-06T14:38:05;4.07;;;3.67;;
8704;SDS011;4389;41.932;25.904;2023-04-06T14:40:34;4.67;;;3.50;;
8704;SDS011;4389;41.932;25.904;2023-04-06T14:43:03;5.83;;;3.93;;
8704;SDS011;4389;41.932;25.904;2023-04-06T14:45:32;4.07;;;3.73;;
8704;SDS011;4389;41.932;25.904;2023-04-06T14:47:59;8.90;;;4.37;;
8704;SDS011;4389;41.932;25.904;2023-04-06T14:50:26;7.47;;;4.20;;
8704;SDS011;4389;41.932;25.904;2023-04-06T14:52:53;7.40;;;3.73;;
8704;SDS011;4389;41.932;25.904;2023-04-06T14:55:19;3.87;;;3.47;;